Licenciado Adolfo Lopez Mateos International Airport
MMTO : now visible

Aeroporto :











RITROVATECI SU...

 
LOGIN :

Iscrizione | Disclaimer

   EN    FR    IT 

 









Sommario :    VFR   VFR Marginale   IFR   IFR Intensivo   IFR Molto Intensivo
Visibilità : 
Base nubi : 
>= 8 km
>= 3000ft
5 / 8 km
1000 / 3000 ft
1500m / 5 km
500 / 1000 ft
800 / 1500m
200 / 500 ft
< 800m
< 200 ft
Simboli :   Temporali  Nebbia  Neve Forte  Precipitazioni Forti  Vento > 20 kt






- Altitudine del aeroporto : 8466 ft
- Codice IATA : TLC


MMTO - Licenciado Adolfo Lopez Mateos International

ULTIMO METAR :
  • 140546Z 13004KT 8SM SCT080 SCT200 09/05 A3037 RMK SLP117 52002 907 8/032

METARs OBSOLETI :
  • 140446Z 15009KT 8SM SCT080 BKN200 10/06 A3038 RMK 8/032
  • 140346Z 14009KT 8SM SCT080 BKN200 11/06 A3038 RMK 8/032

TAF TAF MMTO
Valido dal 14 a 06 ore il 15 a 12 ore UTC


140427Z 1406/1512 14009KT P6SM SCT080 BKN200 TX18/1421Z TN10/1412Z
FM141200 08006KT 5SM HZ SCT015 BKN080 BKN200
FM141800 25010KT P6SM SCT015 BKN070 BKN220
PROB40 1422/1502 5SM -RA
FM150700 06005KT P6SM SCT015 SCT070 BKN220



MetMap, La meteo Aeronautica in un colpo d'occhio ! - Copyright ORBIFLY Dicembre 2007 - Disclaimer

ORBIFLY MET'MAP TEAM :

Programmazione e sviluppo : Alexandra Zaïnal
Concezione e sviluppo : Baudouin d'Aumeries
Co-Programmazione e sviluppo : Marc-Olivier Méhu
Supporto tecnico e logistico : Manuel Goepfert
Aiuto per la traduzione : Arnaldo La Scala

Contatto : metmap@orbifly.com




FONTI E CREDITI :

   NOAA       Earth
Advisory